Time;durP1;ratioP1;P1;durP2;ratioP2;P2;SDS_P1;SDS_P2;PMS_P1;PMS_P2;Temp;Humidity;BMP_temperature;BMP_pressure;BME280_temperature;BME280_humidity;BME280_pressure;Samples;Min_cycle;Max_cycle;Signal;HPM_P1;HPM_P2
2023/06/07 00:01:47;;;;;;;;;;;;;;;22.16;28.79;98299.72;5004450;28;1095;-76
2023/06/07 00:04:13;;;;;;;;;;;;;;;21.88;29.11;98300.38;5018687;28;1456;-75
2023/06/07 00:06:42;;;;;;;;;;;;;;;21.92;28.73;98295.41;5036918;28;931;-76
2023/06/07 00:09:08;;;;;;;;;;;;;;;21.67;29.20;98295.97;5004502;28;1250;-75
2023/06/07 00:11:34;;;;;;;;;;;;;;;21.59;29.59;98278.34;5037607;28;932;-75
2023/06/07 00:14:00;;;;;;;;;;;;;;;21.66;29.46;98288.69;5006457;28;1707;-75
2023/06/07 00:16:26;;;;;;;;;;;;;;;21.62;29.32;98288.00;5017019;28;966;-75
2023/06/07 00:18:52;;;;;;;;;;;;;;;21.81;28.82;98289.97;5016569;28;1983;-76
2023/06/07 00:21:20;;;;;;;;;;;;;;;21.81;29.06;98285.13;5017170;28;1126;-75
2023/06/07 00:23:46;;;;;;;;;;;;;;;21.78;28.83;98283.16;5019816;28;1489;-75
2023/06/07 00:26:11;;;;;;;;;;;;;;;21.90;28.66;98289.38;5004312;28;1142;-75
2023/06/07 00:28:38;;;;;;;;;;;;;;;21.98;28.37;98283.13;5036187;28;708;-75
2023/06/07 00:31:04;;;;;;;;;;;;;;;21.97;28.38;98283.56;5036929;28;818;-75
2023/06/07 00:33:30;;;;;;;;;;;;;;;21.60;29.27;98285.59;5018922;28;1569;-76
2023/06/07 00:35:55;;;;;;;;;;;;;;;21.74;29.01;98273.16;5013502;28;1081;-75
2023/06/07 00:38:22;;;;;;;;;;;;;;;22.12;28.86;98270.66;5063781;28;1987;-75
2023/06/07 00:40:48;;;;;;;;;;;;;;;22.35;28.51;98266.84;5036350;28;870;-76
2023/06/07 00:43:13;;;;;;;;;;;;;;;22.51;28.07;98268.88;4986298;28;1498;-75
2023/06/07 00:45:39;;;;;;;;;;;;;;;21.94;29.00;98270.28;5019687;28;1770;-76
2023/06/07 00:48:04;;;;;;;;;;;;;;;21.94;28.86;98267.44;5036246;28;878;-75
2023/06/07 00:50:30;;;;;;;;;;;;;;;21.41;29.41;98256.09;5003246;28;1119;-75
2023/06/07 00:52:56;;;;;;;;;;;;;;;21.39;29.84;98257.75;5018903;28;1815;-75
2023/06/07 00:55:21;;;;;;;;;;;;;;;21.72;28.95;98259.44;5019846;28;887;-75
2023/06/07 00:57:47;;;;;;;;;;;;;;;21.76;28.88;98260.16;4996436;28;920;-75
2023/06/07 01:00:13;;;;;;;;;;;;;;;21.59;29.01;98258.50;4996757;28;1987;-75
2023/06/07 01:02:39;;;;;;;;;;;;;;;21.51;29.25;98248.59;4995406;28;1449;-75
2023/06/07 01:05:06;;;;;;;;;;;;;;;21.35;29.55;98245.69;4941843;29;1315;-75
2023/06/07 01:07:32;;;;;;;;;;;;;;;21.73;28.89;98246.88;4937709;29;1160;-76
2023/06/07 01:09:59;;;;;;;;;;;;;;;21.46;29.31;98244.25;4938660;29;1138;-75
2023/06/07 01:12:25;;;;;;;;;;;;;;;21.65;29.20;98245.44;4908274;29;887;-75
2023/06/07 01:14:50;;;;;;;;;;;;;;;22.43;28.31;98245.56;4936838;29;1861;-75
2023/06/07 01:17:16;;;;;;;;;;;;;;;22.45;28.07;98233.81;4954379;29;854;-74
2023/06/07 01:19:43;;;;;;;;;;;;;;;22.19;28.52;98230.81;4954437;29;1879;-75
2023/06/07 01:22:10;;;;;;;;;;;;;;;22.17;28.06;98227.59;4954714;29;1173;-75
2023/06/07 01:24:37;;;;;;;;;;;;;;;22.26;28.10;98224.94;4953128;29;1369;-75
2023/06/07 01:27:03;;;;;;;;;;;;;;;21.97;28.24;98222.03;4954539;29;918;-75
2023/06/07 01:29:28;;;;;;;;;;;;;;;21.91;28.41;98232.28;4968738;28;841;-75
2023/06/07 01:31:54;;;;;;;;;;;;;;;21.73;28.73;98221.38;4976841;28;895;-75
2023/06/07 01:34:20;;;;;;;;;;;;;;;21.45;29.37;98219.19;5034715;28;1745;-74
2023/06/07 01:36:49;;;;;;;;;;;;;;;21.57;29.48;98218.53;5022627;28;1089;-75
2023/06/07 01:39:14;;;;;;;;;;;;;;;21.71;29.18;98220.22;5005790;28;1930;-75
2023/06/07 01:41:40;;;;;;;;;;;;;;;21.50;29.51;98224.34;5039371;28;810;-75
2023/06/07 01:44:06;;;;;;;;;;;;;;;21.52;29.32;98224.72;5040983;28;1749;-76
2023/06/07 01:46:31;;;;;;;;;;;;;;;21.38;29.81;98225.03;5042527;28;1099;-75
2023/06/07 01:48:57;;;;;;;;;;;;;;;21.75;28.93;98230.22;5058460;28;962;-76
2023/06/07 01:51:22;;;;;;;;;;;;;;;21.56;29.42;98222.59;5019495;28;1118;-76
2023/06/07 01:53:49;;;;;;;;;;;;;;;21.88;29.24;98226.72;5011988;28;1662;-76
2023/06/07 01:56:27;;;;;;;;;;;;;;;22.20;28.55;98226.72;4999901;28;1223;-75
2023/06/07 01:58:57;;;;;;;;;;;;;;;22.61;28.17;98242.28;4982710;28;1988;-76
2023/06/07 02:01:27;;;;;;;;;;;;;;;22.25;28.36;98237.53;4976698;28;1213;-75
2023/06/07 02:03:53;;;;;;;;;;;;;;;21.83;29.03;98237.31;4975480;28;1359;-75
2023/06/07 02:06:30;;;;;;;;;;;;;;;21.79;29.13;98228.09;5013553;28;964;-75
2023/06/07 02:08:55;;;;;;;;;;;;;;;21.82;29.06;98232.91;4998714;28;1282;-76
2023/06/07 02:11:22;;;;;;;;;;;;;;;21.76;28.88;98226.19;4999439;28;843;-76
2023/06/07 02:13:49;;;;;;;;;;;;;;;21.62;29.27;98239.88;4998805;28;1716;-76
2023/06/07 02:16:15;;;;;;;;;;;;;;;21.65;29.23;98236.13;4999688;28;871;-75
2023/06/07 02:18:41;;;;;;;;;;;;;;;21.68;29.05;98240.94;4998915;28;1989;-75
2023/06/07 02:21:07;;;;;;;;;;;;;;;21.38;29.40;98242.00;4964206;28;1163;-76
2023/06/07 02:23:33;;;;;;;;;;;;;;;21.48;29.65;98244.59;4969080;28;1704;-76
2023/06/07 02:26:00;;;;;;;;;;;;;;;21.57;29.43;98241.19;4967548;28;1184;-75
2023/06/07 02:28:26;;;;;;;;;;;;;;;21.46;29.74;98240.63;4995765;28;909;-75
2023/06/07 02:30:55;;;;;;;;;;;;;;;22.26;29.04;98241.97;4980303;28;949;-76
2023/06/07 02:33:21;;;;;;;;;;;;;;;22.53;28.98;98255.03;4999305;28;1708;-76
2023/06/07 02:35:48;;;;;;;;;;;;;;;22.31;29.25;98244.25;4964416;28;1769;-75
2023/06/07 02:38:14;;;;;;;;;;;;;;;22.30;29.07;98245.50;4966901;28;1142;-76
2023/06/07 02:40:39;;;;;;;;;;;;;;;22.00;29.88;98240.16;4983718;28;1914;-76
2023/06/07 02:43:05;;;;;;;;;;;;;;;21.90;30.04;98241.22;4982755;28;1124;-74
2023/06/07 02:45:30;;;;;;;;;;;;;;;21.77;30.41;98239.09;4981686;28;1825;-75
2023/06/07 02:47:56;;;;;;;;;;;;;;;21.82;30.49;98241.41;4980701;28;1474;-75
2023/06/07 02:50:23;;;;;;;;;;;;;;;22.04;29.85;98233.19;4966981;28;1127;-75
2023/06/07 02:52:50;;;;;;;;;;;;;;;21.83;30.54;98234.50;5014229;28;1665;-75
2023/06/07 02:55:16;;;;;;;;;;;;;;;21.91;30.37;98240.78;5060883;28;1745;-75
2023/06/07 02:57:42;;;;;;;;;;;;;;;21.85;30.21;98234.03;5041913;28;1253;-75
2023/06/07 03:00:10;;;;;;;;;;;;;;;21.78;30.87;98235.00;5041241;28;1910;-76
2023/06/07 03:02:46;;;;;;;;;;;;;;;21.91;30.52;98237.94;5059059;28;1452;-75
2023/06/07 03:05:12;;;;;;;;;;;;;;;21.82;30.79;98234.94;5066062;28;1219;-76
2023/06/07 03:07:40;;;;;;;;;;;;;;;21.84;30.85;98233.25;5066030;28;1374;-75
2023/06/07 03:10:08;;;;;;;;;;;;;;;21.58;31.18;98242.78;5057911;28;1173;-75
2023/06/07 03:12:34;;;;;;;;;;;;;;;22.00;30.44;98240.16;5040293;28;1464;-75
2023/06/07 03:15:00;;;;;;;;;;;;;;;21.89;30.64;98248.13;5041077;28;1118;-75
2023/06/07 03:17:27;;;;;;;;;;;;;;;21.81;30.59;98239.81;5017982;28;1466;-75
2023/06/07 03:19:56;;;;;;;;;;;;;;;21.87;30.72;98242.13;5001281;28;1973;-75
2023/06/07 03:22:23;;;;;;;;;;;;;;;21.68;31.13;98246.59;5001107;28;1684;-74
2023/06/07 03:24:52;;;;;;;;;;;;;;;21.72;30.97;98244.50;5001142;28;924;-75
2023/06/07 03:27:22;;;;;;;;;;;;;;;21.92;30.76;98255.75;5001999;28;1088;-76
2023/06/07 03:29:50;;;;;;;;;;;;;;;21.82;30.86;98252.72;4978158;28;1241;-75
2023/06/07 03:32:17;;;;;;;;;;;;;;;22.17;30.18;98258.00;4961290;28;1808;-75
2023/06/07 03:34:43;;;;;;;;;;;;;;;22.02;30.25;98254.69;4966889;28;1396;-75
2023/06/07 03:37:09;;;;;;;;;;;;;;;22.22;30.13;98258.25;4959604;28;1097;-75
2023/06/07 03:39:38;;;;;;;;;;;;;;;22.12;30.06;98262.16;4959049;28;1910;-75
2023/06/07 03:42:04;;;;;;;;;;;;;;;21.99;30.40;98261.25;4994446;28;1805;-76
2023/06/07 03:44:30;;;;;;;;;;;;;;;21.82;30.62;98264.06;5017743;28;1123;-75
2023/06/07 03:46:55;;;;;;;;;;;;;;;21.94;30.73;98265.41;5001642;28;1106;-76
2023/06/07 03:49:21;;;;;;;;;;;;;;;22.01;30.54;98265.22;5000596;28;1298;-75
2023/06/07 03:51:46;;;;;;;;;;;;;;;21.83;30.88;98265.66;5001442;28;1206;-75
2023/06/07 03:54:14;;;;;;;;;;;;;;;21.89;31.00;98263.09;4984979;28;1455;-75
2023/06/07 03:56:41;;;;;;;;;;;;;;;22.00;30.38;98257.97;4985454;28;1132;-74
2023/06/07 03:59:11;;;;;;;;;;;;;;;22.05;30.43;98265.13;4985003;28;1980;-75
2023/06/07 04:01:39;;;;;;;;;;;;;;;21.85;31.01;98262.38;5002206;28;1051;-75
2023/06/07 04:04:05;;;;;;;;;;;;;;;22.20;30.38;98259.94;5000856;28;1195;-75
2023/06/07 04:06:31;;;;;;;;;;;;;;;22.10;30.48;98253.28;5010946;28;826;-76
2023/06/07 04:08:59;;;;;;;;;;;;;;;22.12;30.67;98259.31;5045540;28;1425;-75
2023/06/07 04:11:28;;;;;;;;;;;;;;;22.10;30.57;98258.94;5040633;28;1777;-75
2023/06/07 04:13:54;;;;;;;;;;;;;;;21.98;30.73;98254.00;5023850;28;1155;-75
2023/06/07 04:16:22;;;;;;;;;;;;;;;21.92;30.87;98252.94;5059676;28;1239;-75
2023/06/07 04:18:49;;;;;;;;;;;;;;;21.95;30.86;98254.84;5080695;28;1963;-76
2023/06/07 04:21:16;;;;;;;;;;;;;;;21.91;30.72;98254.13;5064815;28;1269;-75
2023/06/07 04:23:43;;;;;;;;;;;;;;;22.07;30.39;98251.31;5064353;28;1427;-75
2023/06/07 04:26:18;;;;;;;;;;;;;;;21.97;30.62;98252.41;5032470;28;1371;-75
2023/06/07 04:28:45;;;;;;;;;;;;;;;21.94;30.89;98250.44;5064110;28;1146;-75
2023/06/07 04:31:13;;;;;;;;;;;;;;;21.93;30.99;98251.69;5064547;28;1223;-76
2023/06/07 04:33:40;;;;;;;;;;;;;;;21.94;30.94;98250.44;5063523;28;1288;-76
2023/06/07 04:36:08;;;;;;;;;;;;;;;21.81;31.08;98256.81;5022597;28;1220;-76
2023/06/07 04:38:39;;;;;;;;;;;;;;;21.98;30.66;98263.28;5038708;28;1910;-77
2023/06/07 04:41:07;;;;;;;;;;;;;;;22.03;30.73;98262.75;5020350;28;1281;-76
2023/06/07 04:43:38;;;;;;;;;;;;;;;22.03;30.78;98268.41;5002541;28;1293;-77
2023/06/07 04:46:09;;;;;;;;;;;;;;;21.89;30.77;98273.63;4997156;28;1309;-76
2023/06/07 04:48:41;;;;;;;;;;;;;;;22.07;30.77;98268.31;4964427;28;1311;-76
2023/06/07 04:51:07;;;;;;;;;;;;;;;21.85;31.19;98277.31;4980560;28;1149;-76
2023/06/07 04:53:41;;;;;;;;;;;;;;;22.01;30.60;98270.09;4949033;28;1101;-76
2023/06/07 04:56:09;;;;;;;;;;;;;;;22.04;30.78;98275.69;4964270;28;1203;-77
2023/06/07 04:58:36;;;;;;;;;;;;;;;22.12;30.44;98273.47;4978637;28;1914;-76
2023/06/07 05:01:03;;;;;;;;;;;;;;;22.09;30.58;98271.53;4964381;28;1070;-76
2023/06/07 05:03:31;;;;;;;;;;;;;;;22.18;30.50;98276.63;4947573;28;1234;-76
2023/06/07 05:06:00;;;;;;;;;;;;;;;22.25;30.24;98274.38;4980662;28;1226;-76
2023/06/07 05:08:28;;;;;;;;;;;;;;;22.35;30.37;98273.31;4998791;28;1256;-77
2023/06/07 05:10:54;;;;;;;;;;;;;;;22.26;30.31;98264.63;5016148;28;1233;-77
2023/06/07 05:13:21;;;;;;;;;;;;;;;22.19;30.41;98267.66;5021534;28;1059;-77
2023/06/07 05:15:50;;;;;;;;;;;;;;;22.05;30.50;98276.47;5055814;28;800;-77
2023/06/07 05:18:20;;;;;;;;;;;;;;;22.06;30.85;98272.41;5062370;28;1148;-77
2023/06/07 05:20:47;;;;;;;;;;;;;;;21.85;31.18;98274.50;5063355;28;1914;-77
2023/06/07 05:23:17;;;;;;;;;;;;;;;22.17;30.35;98272.16;5079039;28;1060;-77
2023/06/07 05:25:46;;;;;;;;;;;;;;;21.94;30.69;98271.06;5064171;28;1115;-77
2023/06/07 05:28:13;;;;;;;;;;;;;;;22.20;30.59;98266.41;5038670;28;1315;-77
2023/06/07 05:30:42;;;;;;;;;;;;;;;22.02;30.72;98271.69;5022666;28;1318;-77
2023/06/07 05:33:08;;;;;;;;;;;;;;;22.25;30.31;98279.25;5021733;28;1195;-77
2023/06/07 05:35:35;;;;;;;;;;;;;;;22.22;30.34;98285.81;5022373;28;1087;-77
2023/06/07 05:38:01;;;;;;;;;;;;;;;22.04;30.70;98275.69;5038071;28;1416;-78
2023/06/07 05:40:27;;;;;;;;;;;;;;;22.14;30.39;98282.34;5021511;28;1981;-77
2023/06/07 05:42:56;;;;;;;;;;;;;;;22.32;30.36;98274.19;5037714;28;1234;-77
2023/06/07 05:45:22;;;;;;;;;;;;;;;22.16;30.51;98271.38;5038159;28;1115;-77
2023/06/07 05:47:49;;;;;;;;;;;;;;;22.00;30.89;98274.16;5021499;28;1078;-78
2023/06/07 05:50:16;;;;;;;;;;;;;;;21.99;30.92;98278.25;5005401;28;1096;-78
2023/06/07 05:52:44;;;;;;;;;;;;;;;22.13;30.33;98277.16;5017819;28;1424;-77
2023/06/07 05:55:10;;;;;;;;;;;;;;;21.99;30.55;98284.69;5020861;28;826;-77
2023/06/07 05:57:37;;;;;;;;;;;;;;;22.07;30.57;98280.47;5022786;28;954;-77
2023/06/07 06:00:10;;;;;;;;;;;;;;;22.16;30.61;98287.56;5019133;28;1906;-76
2023/06/07 06:02:37;;;;;;;;;;;;;;;22.06;30.57;98283.72;5023709;28;920;-76
2023/06/07 06:05:04;;;;;;;;;;;;;;;22.21;30.56;98276.50;4999432;28;1230;-77
2023/06/07 06:07:30;;;;;;;;;;;;;;;22.23;30.24;98282.53;5000161;28;858;-76
2023/06/07 06:09:55;;;;;;;;;;;;;;;22.43;30.25;98278.81;4971292;28;1449;-77
2023/06/07 06:12:21;;;;;;;;;;;;;;;21.96;30.86;98291.25;4960634;29;931;-77
2023/06/07 06:14:47;;;;;;;;;;;;;;;22.16;30.45;98285.53;4960378;28;956;-77
2023/06/07 06:17:12;;;;;;;;;;;;;;;22.19;30.32;98279.00;4928680;29;1179;-78
2023/06/07 06:19:38;;;;;;;;;;;;;;;22.35;30.37;98284.66;4960463;29;1919;-77
2023/06/07 06:22:03;;;;;;;;;;;;;;;22.07;30.52;98273.97;4944803;29;1084;-77
2023/06/07 06:24:29;;;;;;;;;;;;;;;21.95;30.94;98283.19;4960132;28;891;-77
2023/06/07 06:26:55;;;;;;;;;;;;;;;22.22;30.62;98275.25;4944086;28;1319;-77
2023/06/07 06:29:21;;;;;;;;;;;;;;;22.19;30.61;98276.16;4947450;28;1395;-77
2023/06/07 06:31:47;;;;;;;;;;;;;;;22.19;30.66;98281.84;4941208;29;1242;-77
2023/06/07 06:34:13;;;;;;;;;;;;;;;22.28;30.66;98273.50;4909167;29;854;-77
2023/06/07 06:36:38;;;;;;;;;;;;;;;22.15;30.63;98281.13;4915968;29;982;-77
2023/06/07 06:39:04;;;;;;;;;;;;;;;22.16;30.78;98279.88;4925221;29;1911;-77
2023/06/07 06:41:30;;;;;;;;;;;;;;;22.36;30.38;98276.94;4922500;29;1176;-77
2023/06/07 06:43:57;;;;;;;;;;;;;;;22.42;30.21;98274.38;4934587;29;1151;-77
2023/06/07 06:46:22;;;;;;;;;;;;;;;22.10;31.02;98273.13;4929197;29;1077;-77
2023/06/07 06:48:48;;;;;;;;;;;;;;;22.23;30.76;98282.53;4960300;29;1049;-77
2023/06/07 06:51:13;;;;;;;;;;;;;;;22.22;30.66;98280.94;4943680;29;1220;-77
2023/06/07 06:53:39;;;;;;;;;;;;;;;22.23;30.46;98278.91;4943350;29;1198;-77
2023/06/07 06:56:06;;;;;;;;;;;;;;;22.11;30.81;98280.41;4959626;29;981;-77
2023/06/07 06:58:34;;;;;;;;;;;;;;;22.38;30.27;98268.00;4958876;29;987;-77
2023/06/07 07:01:01;;;;;;;;;;;;;;;22.16;30.63;98267.75;4924523;29;992;-77
2023/06/07 07:03:26;;;;;;;;;;;;;;;22.20;30.38;98272.09;4922944;29;920;-77
2023/06/07 07:05:52;;;;;;;;;;;;;;;21.89;31.30;98262.28;4942040;29;845;-77
2023/06/07 07:08:18;;;;;;;;;;;;;;;21.93;30.74;98263.00;4943219;28;1107;-76
2023/06/07 07:10:43;;;;;;;;;;;;;;;21.99;30.87;98273.38;4959021;28;925;-78
2023/06/07 07:13:09;;;;;;;;;;;;;;;21.90;31.17;98275.22;4973008;28;1358;-77
2023/06/07 07:15:36;;;;;;;;;;;;;;;22.05;30.79;98268.75;4997935;28;1196;-76
2023/06/07 07:18:02;;;;;;;;;;;;;;;21.96;31.04;98267.78;4997476;28;771;-77
2023/06/07 07:20:28;;;;;;;;;;;;;;;22.18;30.84;98274.56;5004530;28;2005;-77
2023/06/07 07:22:55;;;;;;;;;;;;;;;22.21;30.57;98268.00;5000661;28;915;-77
2023/06/07 07:25:20;;;;;;;;;;;;;;;22.16;30.54;98271.38;4999823;28;755;-77
2023/06/07 07:27:46;;;;;;;;;;;;;;;22.10;30.68;98278.78;5000318;28;1334;-77
2023/06/07 07:30:11;;;;;;;;;;;;;;;22.06;30.69;98278.06;4999777;28;1095;-77
2023/06/07 07:32:37;;;;;;;;;;;;;;;22.09;30.68;98288.53;5042058;28;906;-77
2023/06/07 07:35:03;;;;;;;;;;;;;;;21.91;31.12;98276.81;5023158;28;1270;-77
2023/06/07 07:37:28;;;;;;;;;;;;;;;22.21;30.64;98295.56;5040518;28;1202;-77
2023/06/07 07:39:54;;;;;;;;;;;;;;;21.97;31.02;98292.06;5056177;28;1906;-77
2023/06/07 07:42:20;;;;;;;;;;;;;;;22.05;30.70;98293.47;5023322;28;1341;-77
2023/06/07 07:44:45;;;;;;;;;;;;;;;22.05;30.97;98299.13;5056471;28;1237;-77
2023/06/07 07:47:11;;;;;;;;;;;;;;;22.22;30.51;98297.94;5039916;28;886;-78
2023/06/07 07:49:37;;;;;;;;;;;;;;;22.05;30.82;98299.13;5056559;28;758;-77
2023/06/07 07:52:03;;;;;;;;;;;;;;;22.29;30.07;98302.66;5040139;28;941;-77
2023/06/07 07:54:29;;;;;;;;;;;;;;;22.02;30.74;98294.34;5019817;28;1023;-77
2023/06/07 07:56:55;;;;;;;;;;;;;;;22.12;30.52;98287.66;5036370;28;1068;-77
2023/06/07 07:59:21;;;;;;;;;;;;;;;22.05;30.51;98287.81;5035173;28;1914;-76
2023/06/07 08:01:49;;;;;;;;;;;;;;;22.30;29.74;98287.22;5035618;28;716;-77
2023/06/07 08:04:14;;;;;;;;;;;;;;;22.05;30.12;98282.13;5034808;28;1146;-76
2023/06/07 08:06:40;;;;;;;;;;;;;;;22.17;30.14;98284.28;4999495;28;1236;-76
2023/06/07 08:09:06;;;;;;;;;;;;;;;22.33;29.47;98272.97;4999463;28;839;-77
2023/06/07 08:11:31;;;;;;;;;;;;;;;22.11;30.04;98280.41;4968497;28;1142;-77
2023/06/07 08:13:57;;;;;;;;;;;;;;;22.15;29.99;98289.63;4980132;28;843;-76
2023/06/07 08:16:22;;;;;;;;;;;;;;;22.19;29.78;98278.19;4963452;28;840;-76
2023/06/07 08:18:49;;;;;;;;;;;;;;;22.26;29.75;98280.84;4979299;28;1899;-77
2023/06/07 08:21:15;;;;;;;;;;;;;;;22.07;29.76;98276.81;4977862;28;1210;-77
2023/06/07 08:23:43;;;;;;;;;;;;;;;22.29;29.32;98286.44;4979470;28;1064;-78
2023/06/07 08:26:09;;;;;;;;;;;;;;;22.26;29.63;98280.84;4959698;28;1018;-77
2023/06/07 08:28:34;;;;;;;;;;;;;;;22.12;29.88;98281.19;4959317;28;956;-76
2023/06/07 08:31:03;;;;;;;;;;;;;;;21.96;29.95;98290.44;4962080;28;1577;-77
2023/06/07 08:33:29;;;;;;;;;;;;;;;21.86;29.95;98292.28;4979421;28;857;-78
2023/06/07 08:35:55;;;;;;;;;;;;;;;21.92;29.68;98292.59;4964719;28;1469;-77
2023/06/07 08:38:20;;;;;;;;;;;;;;;22.06;29.76;98289.41;4960095;28;1277;-76
2023/06/07 08:40:46;;;;;;;;;;;;;;;21.91;29.68;98288.13;4928527;28;1918;-78
2023/06/07 08:43:11;;;;;;;;;;;;;;;21.90;29.79;98280.88;4962528;28;923;-77
2023/06/07 08:45:37;;;;;;;;;;;;;;;21.89;30.01;98270.78;4979607;28;1205;-77
2023/06/07 08:48:06;;;;;;;;;;;;;;;22.08;29.63;98282.06;4979023;28;1340;-76
2023/06/07 08:50:32;;;;;;;;;;;;;;;22.17;29.53;98287.13;4979619;28;1055;-77
2023/06/07 08:52:57;;;;;;;;;;;;;;;22.22;29.26;98289.44;4963562;28;968;-77
2023/06/07 08:55:24;;;;;;;;;;;;;;;22.07;29.42;98302.31;4979204;28;933;-77
2023/06/07 08:57:52;;;;;;;;;;;;;;;22.22;29.11;98297.94;4979338;28;947;-77
2023/06/07 09:00:24;;;;;;;;;;;;;;;21.91;29.55;98293.81;4980067;28;1898;-77
2023/06/07 09:02:53;;;;;;;;;;;;;;;21.77;29.73;98292.91;4982887;28;896;-77
2023/06/07 09:05:19;;;;;;;;;;;;;;;22.10;29.36;98290.13;5014531;28;1007;-75
2023/06/07 09:07:45;;;;;;;;;;;;;;;21.98;29.34;98282.31;5031654;28;1008;-76
2023/06/07 09:10:13;;;;;;;;;;;;;;;21.81;29.64;98296.47;5014325;28;883;-76
2023/06/07 09:12:39;;;;;;;;;;;;;;;21.84;29.91;98289.91;5015028;28;1000;-76
2023/06/07 09:15:06;;;;;;;;;;;;;;;21.91;29.68;98293.81;5011277;28;934;-75
2023/06/07 09:17:55;;;;;;;;;;;;;;;22.08;29.26;98292.59;4995424;28;913;-76
2023/06/07 09:20:24;;;;;;;;;;;;;;;21.83;29.42;98288.31;4975195;28;1910;-75
2023/06/07 09:23:16;;;;;;;;;;;;;;;21.93;29.63;98294.19;4959752;28;969;-75
2023/06/07 09:25:44;;;;;;;;;;;;;;;22.00;29.25;98291.16;4975436;28;868;-75
2023/06/07 09:28:10;;;;;;;;;;;;;;;21.95;29.33;98294.53;4991132;28;1124;-76
2023/06/07 09:30:36;;;;;;;;;;;;;;;21.76;29.61;98279.16;4991706;28;1454;-75
2023/06/07 09:33:03;;;;;;;;;;;;;;;21.92;29.34;98290.56;4955961;28;1218;-76
2023/06/07 09:35:28;;;;;;;;;;;;;;;21.94;29.35;98292.94;4956285;28;1288;-76
2023/06/07 09:37:59;;;;;;;;;;;;;;;21.88;29.70;98294.69;4955937;28;948;-76
2023/06/07 09:40:24;;;;;;;;;;;;;;;21.88;29.50;98306.03;4956322;29;1915;-75
2023/06/07 09:42:57;;;;;;;;;;;;;;;21.88;29.79;98306.03;4956334;28;1024;-76
2023/06/07 09:45:23;;;;;;;;;;;;;;;21.84;29.54;98301.22;4943650;28;1295;-76
2023/06/07 09:47:49;;;;;;;;;;;;;;;21.93;29.29;98291.34;4975645;28;1010;-75
2023/06/07 09:50:15;;;;;;;;;;;;;;;21.99;29.50;98289.56;4940187;29;1279;-75
2023/06/07 09:52:41;;;;;;;;;;;;;;;21.92;29.58;98298.25;4939801;29;877;-76
2023/06/07 09:55:07;;;;;;;;;;;;;;;21.81;29.86;98307.78;4956263;28;951;-76
2023/06/07 09:57:33;;;;;;;;;;;;;;;22.01;29.49;98304.09;4924733;29;1135;-76
2023/06/07 10:00:15;;;;;;;;;;;;;;;22.05;29.34;98299.94;4913964;28;1900;-77
2023/06/07 10:02:42;;;;;;;;;;;;;;;22.10;28.89;98290.13;4972269;28;993;-76
2023/06/07 10:05:08;;;;;;;;;;;;;;;21.92;29.47;98295.41;5034832;28;948;-76
2023/06/07 10:07:43;;;;;;;;;;;;;;;21.96;29.27;98301.78;5038321;28;998;-76
2023/06/07 10:10:11;;;;;;;;;;;;;;;21.93;29.53;98280.00;5037508;28;850;-76
2023/06/07 10:12:38;;;;;;;;;;;;;;;21.93;29.64;98289.31;5021551;28;998;-76
2023/06/07 10:15:05;;;;;;;;;;;;;;;22.23;29.17;98293.09;5037346;28;1959;-77
2023/06/07 10:17:41;;;;;;;;;;;;;;;22.00;29.25;98288.34;5034650;28;831;-77
2023/06/07 10:20:08;;;;;;;;;;;;;;;22.01;29.51;98292.75;5001447;28;1906;-77
2023/06/07 10:22:34;;;;;;;;;;;;;;;22.11;29.26;98280.41;5055728;28;885;-77
2023/06/07 10:25:19;;;;;;;;;;;;;;;21.90;29.47;98275.22;5055188;28;1091;-77
2023/06/07 10:27:52;;;;;;;;;;;;;;;22.00;29.29;98274.97;5055099;28;821;-76
2023/06/07 10:30:18;;;;;;;;;;;;;;;21.80;29.80;98283.50;5038352;28;715;-76
2023/06/07 10:32:44;;;;;;;;;;;;;;;21.90;29.61;98286.53;5055171;28;846;-76
2023/06/07 10:35:10;;;;;;;;;;;;;;;21.91;29.56;98282.47;5055037;28;829;-75
2023/06/07 10:37:36;;;;;;;;;;;;;;;21.95;29.55;98288.84;5054692;28;1069;-76
2023/06/07 10:40:09;;;;;;;;;;;;;;;22.10;29.09;98290.13;5055055;28;1905;-76
2023/06/07 10:42:39;;;;;;;;;;;;;;;22.02;29.27;98283.00;5043128;28;727;-76
2023/06/07 10:45:05;;;;;;;;;;;;;;;21.86;29.71;98280.94;5058547;28;975;-76
2023/06/07 10:47:30;;;;;;;;;;;;;;;21.76;29.72;98280.00;5058769;28;858;-76
2023/06/07 10:49:56;;;;;;;;;;;;;;;21.75;29.88;98281.19;5056794;28;1034;-76
2023/06/07 10:52:22;;;;;;;;;;;;;;;22.06;29.31;98292.22;5024279;28;1433;-76
2023/06/07 10:54:48;;;;;;;;;;;;;;;21.91;29.48;98276.81;5040864;28;1015;-76
2023/06/07 10:57:14;;;;;;;;;;;;;;;21.91;29.27;98271.13;5040644;28;1021;-76
2023/06/07 10:59:40;;;;;;;;;;;;;;;22.03;29.42;98270.47;5040170;28;1902;-76
2023/06/07 11:02:18;;;;;;;;;;;;;;;22.19;29.02;98266.88;5040802;28;1091;-76
2023/06/07 11:04:51;;;;;;;;;;;;;;;22.07;29.18;98262.66;5040605;28;886;-77
2023/06/07 11:07:22;;;;;;;;;;;;;;;21.79;29.69;98267.75;5041202;28;943;-76
2023/06/07 11:10:08;;;;;;;;;;;;;;;21.64;29.78;98252.34;5040181;28;907;-76
2023/06/07 11:12:45;;;;;;;;;;;;;;;21.75;29.46;98261.38;5056852;28;871;-76
2023/06/07 11:15:17;;;;;;;;;;;;;;;21.62;30.04;98263.31;5056681;28;950;-76
2023/06/07 11:17:58;;;;;;;;;;;;;;;21.92;29.17;98267.09;5056954;28;731;-76
2023/06/07 11:20:38;;;;;;;;;;;;;;;21.87;29.48;98264.78;5019826;28;2001;-76
2023/06/07 11:23:22;;;;;;;;;;;;;;;21.88;29.64;98261.50;5036757;28;983;-76
2023/06/07 11:25:48;;;;;;;;;;;;;;;21.74;29.67;98248.47;5037357;28;888;-76
2023/06/07 11:28:14;;;;;;;;;;;;;;;22.03;29.25;98264.78;5019982;28;974;-76
2023/06/07 11:30:43;;;;;;;;;;;;;;;22.14;29.17;98268.19;5037092;28;937;-76
2023/06/07 11:33:13;;;;;;;;;;;;;;;22.07;29.13;98257.81;5020382;28;981;-77
2023/06/07 11:35:39;;;;;;;;;;;;;;;21.84;29.40;98261.56;5020782;28;850;-76
2023/06/07 11:38:05;;;;;;;;;;;;;;;22.18;28.90;98251.91;5019921;28;1406;-75
2023/06/07 11:40:30;;;;;;;;;;;;;;;21.89;29.42;98253.78;5020666;28;1914;-76
2023/06/07 11:42:56;;;;;;;;;;;;;;;22.05;28.96;98257.44;5004390;28;1007;-77
2023/06/07 11:45:24;;;;;;;;;;;;;;;22.07;28.93;98254.16;5036603;28;908;-77
2023/06/07 11:47:49;;;;;;;;;;;;;;;21.96;29.14;98262.13;5003762;28;1059;-76
2023/06/07 11:50:15;;;;;;;;;;;;;;;22.15;28.94;98264.09;5019955;28;1003;-76
2023/06/07 11:52:41;;;;;;;;;;;;;;;21.95;29.25;98255.66;5020115;28;994;-76
2023/06/07 11:55:09;;;;;;;;;;;;;;;21.74;29.71;98262.63;5020166;28;910;-76
2023/06/07 11:57:38;;;;;;;;;;;;;;;22.01;28.93;98250.25;5050239;28;978;-76
2023/06/07 12:00:17;;;;;;;;;;;;;;;22.04;28.90;98257.88;5056877;28;1979;-76
2023/06/07 12:02:42;;;;;;;;;;;;;;;21.87;29.30;98253.44;5057724;28;1007;-76
2023/06/07 12:05:09;;;;;;;;;;;;;;;21.91;29.24;98245.63;5057445;28;948;-76
2023/06/07 12:07:35;;;;;;;;;;;;;;;22.05;28.87;98245.31;5057308;28;759;-77
2023/06/07 12:10:01;;;;;;;;;;;;;;;21.71;29.65;98237.19;5058393;28;1089;-76
2023/06/07 12:12:26;;;;;;;;;;;;;;;21.70;29.72;98235.63;5041062;28;755;-77
2023/06/07 12:15:01;;;;;;;;;;;;;;;21.89;29.11;98229.09;5058004;28;906;-77
2023/06/07 12:17:36;;;;;;;;;;;;;;;21.92;29.20;98233.09;5057262;28;884;-76
2023/06/07 12:20:11;;;;;;;;;;;;;;;21.80;29.54;98241.03;5057154;28;1985;-76
2023/06/07 12:22:37;;;;;;;;;;;;;;;21.91;29.24;98231.47;5057248;28;894;-75
2023/06/07 12:25:09;;;;;;;;;;;;;;;22.04;29.05;98218.22;5059121;28;1255;-77
2023/06/07 12:27:37;;;;;;;;;;;;;;;22.03;29.08;98227.97;5036053;28;983;-77
2023/06/07 12:30:05;;;;;;;;;;;;;;;22.07;29.08;98222.97;5019663;28;933;-76
2023/06/07 12:32:31;;;;;;;;;;;;;;;21.95;29.15;98209.53;5019811;28;1036;-76
2023/06/07 12:35:01;;;;;;;;;;;;;;;21.70;29.86;98221.47;5035429;28;1188;-75
2023/06/07 12:37:27;;;;;;;;;;;;;;;21.52;30.19;98227.53;5019778;28;948;-76
2023/06/07 12:39:53;;;;;;;;;;;;;;;21.90;29.49;98224.22;5019079;28;1988;-76
2023/06/07 12:42:18;;;;;;;;;;;;;;;21.97;29.39;98221.22;5019024;28;905;-76
2023/06/07 12:44:44;;;;;;;;;;;;;;;21.95;29.39;98218.03;5035329;28;1001;-76
2023/06/07 12:47:09;;;;;;;;;;;;;;;21.91;29.40;98220.94;5019202;28;952;-76
2023/06/07 12:49:35;;;;;;;;;;;;;;;21.65;29.96;98211.44;5002292;28;1274;-76
2023/06/07 12:52:03;;;;;;;;;;;;;;;21.89;29.17;98205.63;5003192;28;1154;-76
2023/06/07 12:54:29;;;;;;;;;;;;;;;21.84;29.60;98204.91;5035493;28;973;-76
2023/06/07 12:56:55;;;;;;;;;;;;;;;21.80;29.78;98212.69;5019135;28;912;-76
2023/06/07 12:59:21;;;;;;;;;;;;;;;21.83;29.63;98209.00;5047809;28;1959;-77
2023/06/07 13:01:46;;;;;;;;;;;;;;;21.83;29.62;98208.19;4995676;28;1188;-76